Terminal Aerodrome Forecast
Issued by NWS

Home | Current Version | Previous Version | Text Only | Print | Product List | Glossary On
Versions: 1 2 3 4 5 6 7 8 9 10 11 12 13 14
000
FTUS41 KBTV 212320
TAFRUT
TAF
KRUT 212320Z 2200/2224 14004KT P6SM SKC
     FM221400 20008KT P6SM SCT090
     FM221700 20009G15KT P6SM VCSH FEW060 SCT120
     FM222000 20011G20KT P6SM VCTS BKN045CB
     FM222200 20008KT 4SM SHRA BR BKN060=

USA.gov is the U.S. government's official web portal to all federal, state and local government web resources and services.